Los Colorados, Argentina
Current Conditions -  °F | °C
As of 3:00 PM on Thursday 27 Nov 2014 (Local Time) from SACO Reporting Station
Few Clouds Few Clouds  
Wind Chill: 88°   Ceiling: Unl
Heat Index: 88°   Visibility: 6mi
Dew Point: 46°   Wind: 17mph
Humidity: 24%   Direction: 360°N
Pressure: 29.97"   Gusts: NA
Location:  30.06°S, 67.12°W
Report Text: SACO 271800Z 36015KT 9999 FEW030 31/08 Q1015
Loading
Personal Weather Stations






























Interactive Weather Map New forecast layout! Learn more

10-Day Weather Forecast

Advertisements
Track Severe Weather on mobile